Time;durP1;ratioP1;P1;durP2;ratioP2;P2;SDS_P1;SDS_P2;PMS_P1;PMS_P2;Temp;Humidity;BMP_temperature;BMP_pressure;BME280_temperature;BME280_humidity;BME280_pressure;Samples;Min_cycle;Max_cycle;Signal;HPM_P1;HPM_P2
2022/09/29 00:09:31;;;;;;;26.58;13.90;;;;;;;8.54;100.00;98863.81;20816863;28;20069;-72
2022/09/29 00:19:32;;;;;;;31.02;14.50;;;;;;;8.57;100.00;98863.72;20816996;28;20046;-71
2022/09/29 00:29:33;;;;;;;26.98;13.63;;;;;;;8.67;100.00;98849.47;20817518;28;20513;-72
2022/09/29 00:39:35;;;;;;;29.85;15.15;;;;;;;8.69;100.00;98850.28;20814331;28;20490;-73
2022/09/29 00:49:36;;;;;;;30.58;14.75;;;;;;;8.58;100.00;98850.63;20815051;28;20637;-72
2022/09/29 00:59:37;;;;;;;31.52;14.80;;;;;;;8.51;100.00;98853.47;20814396;28;20073;-71
2022/09/29 01:09:39;;;;;;;32.30;15.82;;;;;;;8.59;100.00;98846.28;20812570;28;20080;-71
2022/09/29 01:19:40;;;;;;;32.65;15.73;;;;;;;8.63;100.00;98832.22;20812478;28;20045;-74
2022/09/29 01:29:41;;;;;;;36.72;15.73;;;;;;;8.64;100.00;98833.91;20812237;28;20461;-71
2022/09/29 01:39:43;;;;;;;36.85;16.77;;;;;;;8.63;100.00;98837.44;20808018;28;20073;-72
2022/09/29 01:49:44;;;;;;;30.15;14.82;;;;;;;8.58;100.00;98839.34;20810408;28;20085;-72
2022/09/29 01:59:45;;;;;;;30.05;15.52;;;;;;;8.60;100.00;98841.00;20809402;28;20060;-72
2022/09/29 02:09:47;;;;;;;33.13;15.43;;;;;;;8.62;100.00;98841.78;20807916;28;20095;-72
2022/09/29 02:19:48;;;;;;;33.03;15.50;;;;;;;8.67;100.00;98839.03;20807858;28;20152;-71
2022/09/29 02:29:50;;;;;;;33.28;15.70;;;;;;;8.77;100.00;98845.66;20808028;28;20136;-71
2022/09/29 02:39:51;;;;;;;36.67;15.63;;;;;;;8.77;100.00;98845.66;20804714;28;20537;-72
2022/09/29 02:49:52;;;;;;;37.30;16.67;;;;;;;8.74;100.00;98840.53;20805619;28;20637;-73
2022/09/29 02:59:54;;;;;;;34.90;14.85;;;;;;;8.76;100.00;98845.69;20805827;28;20092;-72
2022/09/29 03:09:55;;;;;;;30.75;14.93;;;;;;;8.73;100.00;98844.06;20804710;28;20088;-73
2022/09/29 03:19:56;;;;;;;32.22;15.52;;;;;;;8.78;100.00;98836.06;20805934;28;20081;-72
2022/09/29 03:29:58;;;;;;;28.85;14.00;;;;;;;8.82;100.00;98838.53;20806045;28;20045;-72
2022/09/29 03:39:59;;;;;;;30.10;14.63;;;;;;;8.86;100.00;98834.91;20802830;28;20176;-72
2022/09/29 03:50:00;;;;;;;28.38;12.95;;;;;;;8.82;100.00;98833.31;20804288;28;20084;-73
2022/09/29 04:00:02;;;;;;;30.67;14.10;;;;;;;8.80;100.00;98845.53;20806670;28;20087;-72
2022/09/29 04:10:03;;;;;;;24.00;12.38;;;;;;;8.78;100.00;98849.13;20814084;28;20061;-72
2022/09/29 04:20:06;;;;;;;28.75;13.75;;;;;;;8.90;100.00;98841.72;20816642;28;20204;-71
2022/09/29 04:30:08;;;;;;;28.13;14.40;;;;;;;8.82;100.00;98842.91;20816914;28;20133;-72
2022/09/29 04:40:10;;;;;;;31.40;13.57;;;;;;;8.88;100.00;98848.75;20814540;28;20080;-73
2022/09/29 04:50:11;;;;;;;32.25;14.57;;;;;;;8.70;100.00;98849.38;20810364;28;20045;-73
2022/09/29 05:00:13;;;;;;;29.40;13.38;;;;;;;8.52;100.00;98860.41;20813671;28;20080;-72
2022/09/29 05:10:14;;;;;;;28.30;14.02;;;;;;;8.61;100.00;98865.31;20811865;28;20144;-72
2022/09/29 05:20:15;;;;;;;32.38;14.98;;;;;;;8.84;100.00;98870.63;20812421;28;20139;-72
2022/09/29 05:30:16;;;;;;;35.35;15.23;;;;;;;8.90;100.00;98877.41;20812717;28;20073;-71
2022/09/29 05:40:18;;;;;;;30.85;13.27;;;;;;;8.80;100.00;98882.09;20810926;28;20045;-71
2022/09/29 05:50:20;;;;;;;32.20;13.82;;;;;;;8.95;100.00;98885.94;20809543;28;20057;-73
2022/09/29 06:00:21;;;;;;;28.27;13.75;;;;;;;8.97;100.00;98895.44;20787264;28;20107;-71
2022/09/29 06:10:22;;;;;;;27.88;13.35;;;;;;;8.88;100.00;98895.75;20775554;28;20085;-72
2022/09/29 06:20:24;;;;;;;26.25;13.15;;;;;;;9.04;100.00;98890.00;20771355;28;20162;-71
2022/09/29 06:30:25;;;;;;;22.67;11.77;;;;;;;9.09;100.00;98893.31;20780291;28;20136;-72
2022/09/29 06:40:26;;;;;;;20.98;10.55;;;;;;;9.09;100.00;98896.78;20803799;28;20050;-72
2022/09/29 06:50:28;;;;;;;19.50;10.90;;;;;;;9.04;100.00;98895.22;20806819;28;20049;-73
2022/09/29 07:00:30;;;;;;;18.50;10.88;;;;;;;9.25;100.00;98910.19;20806178;28;20100;-73
2022/09/29 07:10:31;;;;;;;16.77;9.68;;;;;;;9.47;100.00;98921.56;20806000;28;20542;-73
2022/09/29 07:20:32;;;;;;;22.50;16.27;;;;;;;9.56;100.00;98924.78;20805232;28;20069;-73
2022/09/29 07:30:36;;;;;;;15.85;9.35;;;;;;;9.51;100.00;98933.63;20805401;28;20065;-72
2022/09/29 07:40:41;;;;;;;15.80;9.52;;;;;;;9.63;100.00;98937.59;20815511;28;20060;-73
2022/09/29 07:50:42;;;;;;;18.65;9.65;;;;;;;9.68;100.00;98943.50;20818929;28;20084;-74
2022/09/29 08:00:43;;;;;;;20.02;9.65;;;;;;;9.79;100.00;98931.81;20818021;28;20146;-73
2022/09/29 08:10:45;;;;;;;17.98;9.43;;;;;;;10.05;100.00;98936.06;20817755;28;20092;-73
2022/09/29 08:20:53;;;;;;;16.95;9.50;;;;;;;10.14;100.00;98948.81;20818634;28;20049;-74
2022/09/29 08:30:59;;;;;;;16.90;9.85;;;;;;;10.33;100.00;98955.09;20816408;28;20111;-73
2022/09/29 08:41:04;;;;;;;18.10;11.23;;;;;;;10.58;100.00;98970.69;20815935;28;20560;-73
2022/09/29 08:51:06;;;;;;;18.65;10.40;;;;;;;10.71;100.00;98977.16;20815174;28;20081;-74
2022/09/29 09:01:08;;;;;;;20.35;10.73;;;;;;;10.56;100.00;98990.00;20813926;28;20486;-73
2022/09/29 09:11:09;;;;;;;16.58;10.52;;;;;;;10.99;100.00;98997.88;20813085;28;20053;-74
2022/09/29 09:21:11;;;;;;;17.90;9.93;;;;;;;10.90;100.00;99008.72;20811974;28;20068;-73
2022/09/29 09:31:12;;;;;;;14.52;9.30;;;;;;;11.56;100.00;98998.19;20812085;28;20053;-75
2022/09/29 09:41:14;;;;;;;15.60;8.07;;;;;;;12.18;100.00;99001.66;20810707;28;20057;-74
2022/09/29 09:51:15;;;;;;;12.95;7.88;;;;;;;12.04;100.00;99000.50;20810862;28;20567;-75
2022/09/29 10:01:17;;;;;;;15.57;7.65;;;;;;;12.16;100.00;99016.59;20808645;28;20065;-74
2022/09/29 10:11:18;;;;;;;8.90;5.53;;;;;;;12.19;100.00;99014.72;20805192;28;20513;-75
2022/09/29 10:21:22;;;;;;;12.30;7.78;;;;;;;12.54;100.00;99026.22;20806941;28;20073;-75
2022/09/29 10:31:23;;;;;;;9.45;6.35;;;;;;;13.09;100.00;99002.63;20806128;28;20564;-74
2022/09/29 10:41:24;;;;;;;10.65;6.63;;;;;;;13.68;100.00;98997.16;20805579;28;20096;-75
2022/09/29 10:51:26;;;;;;;11.30;5.22;;;;;;;13.22;100.00;99004.69;20806341;28;20053;-76
2022/09/29 11:01:27;;;;;;;8.70;4.43;;;;;;;13.25;100.00;99001.91;20806062;28;20081;-76
2022/09/29 11:11:28;;;;;;;9.07;4.47;;;;;;;13.09;100.00;99001.78;20811717;28;20472;-75
2022/09/29 11:21:30;;;;;;;7.20;3.47;;;;;;;13.34;100.00;99001.47;20822055;28;20156;-74
2022/09/29 11:31:31;;;;;;;9.00;3.70;;;;;;;13.52;100.00;99013.72;20821026;28;20128;-75
2022/09/29 11:41:32;;;;;;;6.93;3.13;;;;;;;13.99;100.00;99004.31;20819589;28;20073;-73
2022/09/29 12:02:18;;;;;;;6.65;2.80;;;;;;;14.12;99.38;98994.84;20749839;28;20049;-79
2022/09/29 12:12:20;;;;;;;7.10;3.20;;;;;;;14.54;100.00;98991.72;20744168;28;20054;-77
2022/09/29 12:22:24;;;;;;;6.75;3.67;;;;;;;14.32;100.00;98999.06;20743942;28;20089;-78
2022/09/29 12:32:27;;;;;;;8.38;4.15;;;;;;;14.27;100.00;98998.44;20749111;28;20064;-77
2022/09/29 12:42:28;;;;;;;8.00;3.67;;;;;;;14.17;100.00;98987.56;20757620;28;20053;-78
2022/09/29 12:52:30;;;;;;;11.13;3.95;;;;;;;13.99;100.00;98994.66;20752899;28;20093;-77
2022/09/29 13:02:31;;;;;;;7.18;4.00;;;;;;;14.28;99.31;98997.53;20743030;28;20057;-78
2022/09/29 13:12:32;;;;;;;7.90;3.60;;;;;;;14.56;96.43;98997.78;20756613;28;20084;-77
2022/09/29 13:22:34;;;;;;;8.90;3.50;;;;;;;14.69;100.00;99008.47;20756991;28;20073;-77
2022/09/29 13:32:35;;;;;;;9.50;4.38;;;;;;;14.59;98.54;99005.50;20740568;28;20545;-77
2022/09/29 13:42:37;;;;;;;6.47;2.78;;;;;;;14.87;99.57;99009.25;20725117;28;20478;-75
2022/09/29 13:52:39;;;;;;;8.25;2.95;;;;;;;14.78;93.77;99015.03;20736798;28;20057;-75
2022/09/29 14:02:40;;;;;;;7.95;4.40;;;;;;;14.77;94.99;99011.56;20731578;28;20078;-76
2022/09/29 14:12:41;;;;;;;10.38;4.00;;;;;;;15.05;97.92;99018.78;20734332;28;20046;-75
2022/09/29 14:22:43;;;;;;;11.10;4.53;;;;;;;14.93;97.04;99024.72;20735906;28;20545;-75
2022/09/29 14:32:45;;;;;;;7.32;3.63;;;;;;;14.76;96.43;99028.31;20734844;28;20410;-76
2022/09/29 14:42:47;;;;;;;8.70;3.60;;;;;;;14.54;96.01;99033.03;20733292;28;20073;-76
2022/09/29 14:52:50;;;;;;;12.95;5.25;;;;;;;14.54;100.00;99033.03;20732779;28;20042;-79
2022/09/29 15:02:52;;;;;;;7.90;3.95;;;;;;;14.53;100.00;99048.00;20732362;28;20049;-78
2022/09/29 15:13:05;;;;;;;11.43;5.22;;;;;;;14.39;100.00;99055.75;20732729;28;20041;-78
2022/09/29 15:23:06;;;;;;;11.88;4.22;;;;;;;14.35;99.96;99059.47;20731996;28;20096;-78
2022/09/29 15:33:08;;;;;;;5.90;2.80;;;;;;;14.19;100.00;99063.84;20717982;28;20503;-78
2022/09/29 15:43:11;;;;;;;13.30;5.53;;;;;;;14.18;100.00;99068.25;20724488;28;20133;-80
2022/09/29 15:53:12;;;;;;;8.15;4.45;;;;;;;14.02;100.00;99068.16;20726969;28;20046;-78
2022/09/29 16:03:13;;;;;;;11.35;4.97;;;;;;;13.53;100.00;99089.03;20746236;28;20045;-78
2022/09/29 16:13:15;;;;;;;11.40;4.68;;;;;;;13.47;100.00;99114.78;20762015;28;20479;-77
2022/09/29 16:23:16;;;;;;;17.42;9.50;;;;;;;13.14;100.00;99141.72;20743254;28;20081;-78
2022/09/29 16:33:17;;;;;;;9.15;4.00;;;;;;;12.64;100.00;99178.13;20811107;22;20152;-72
2022/09/29 16:43:21;;;;;;;11.10;6.13;;;;;;;10.87;100.00;99199.13;20808995;28;20069;-71
2022/09/29 16:53:23;;;;;;;9.33;3.73;;;;;;;10.31;100.00;99229.00;20808203;28;20084;-72
2022/09/29 17:03:24;;;;;;;6.50;2.38;;;;;;;10.21;100.00;99238.03;20806763;28;20593;-72
2022/09/29 17:13:25;;;;;;;7.03;2.00;;;;;;;10.14;100.00;99263.50;20807409;28;20144;-72
2022/09/29 17:23:27;;;;;;;15.82;9.88;;;;;;;10.01;100.00;99265.69;20807575;28;20061;-73
2022/09/29 17:33:28;;;;;;;20.33;9.40;;;;;;;9.90;100.00;99291.28;20808029;28;20089;-75
2022/09/29 17:43:32;;;;;;;4.50;1.65;;;;;;;9.98;100.00;99291.91;20805853;28;21179;-76
2022/09/29 17:53:34;;;;;;;18.75;11.80;;;;;;;9.75;100.00;99276.09;20806573;28;20076;-77
2022/09/29 18:03:35;;;;;;;8.10;3.92;;;;;;;9.25;100.00;99271.47;20806080;28;20465;-77
2022/09/29 18:13:40;;;;;;;15.18;7.93;;;;;;;9.18;100.00;99263.81;20805623;28;20065;-77
2022/09/29 18:23:41;;;;;;;6.88;3.78;;;;;;;9.16;100.00;99260.41;20799457;28;20096;-74
2022/09/29 18:33:43;;;;;;;13.32;5.63;;;;;;;9.37;100.00;99274.59;20805767;28;20073;-74
2022/09/29 18:43:44;;;;;;;6.88;3.10;;;;;;;9.36;100.00;99278.13;20803223;28;20486;-75
2022/09/29 18:53:45;;;;;;;8.38;4.95;;;;;;;9.45;100.00;99278.72;20802650;28;20516;-77
2022/09/29 19:03:47;;;;;;;7.97;4.55;;;;;;;9.46;100.00;99283.03;20802562;28;20096;-77
2022/09/29 19:13:53;;;;;;;12.05;6.95;;;;;;;9.39;100.00;99284.13;20803391;28;20365;-73
2022/09/29 19:23:55;;;;;;;11.30;5.70;;;;;;;9.47;100.00;99308.25;20801631;28;20422;-74
2022/09/29 19:33:56;;;;;;;6.68;4.20;;;;;;;9.52;100.00;99311.59;20810485;28;20628;-75
2022/09/29 19:43:58;;;;;;;5.57;3.08;;;;;;;9.50;100.00;99320.38;20817702;28;20556;-74
2022/09/29 19:54:09;;;;;;;7.28;4.45;;;;;;;9.58;100.00;99325.38;20815968;28;20061;-74
2022/09/29 20:04:11;;;;;;;10.18;6.38;;;;;;;9.52;100.00;99337.72;20811641;28;20148;-72
2022/09/29 20:14:12;;;;;;;10.23;6.60;;;;;;;9.42;100.00;99351.94;20815559;28;20084;-71
2022/09/29 20:24:13;;;;;;;18.35;11.50;;;;;;;9.36;100.00;99359.97;20815790;28;20049;-71
2022/09/29 20:34:17;;;;;;;12.60;7.57;;;;;;;9.23;100.00;99358.56;20815766;28;20053;-72
2022/09/29 20:44:22;;;;;;;17.17;11.55;;;;;;;9.08;100.00;99391.16;20813474;28;20465;-67
2022/09/29 20:54:23;;;;;;;;;;;;;;;8.87;100.00;99395.19;20814330;28;20057;-68
2022/09/29 21:04:25;;;;;;;12.30;6.93;;;;;;;8.65;100.00;99394.84;20813887;28;20354;-69
2022/09/29 21:14:26;;;;;;;10.85;6.45;;;;;;;8.80;100.00;99409.28;20811862;28;20073;-68
2022/09/29 21:24:28;;;;;;;9.73;6.22;;;;;;;8.90;100.00;99421.19;20811317;28;20111;-69
2022/09/29 21:34:29;;;;;;;11.48;6.97;;;;;;;8.58;100.00;99442.00;20810849;28;20145;-69
2022/09/29 21:44:32;;;;;;;13.55;7.80;;;;;;;8.65;100.00;99440.97;20810109;28;20081;-68
2022/09/29 21:54:36;;;;;;;13.88;9.20;;;;;;;8.69;100.00;99453.91;20808123;28;20064;-69
2022/09/29 22:04:37;;;;;;;12.43;7.30;;;;;;;8.65;100.00;99467.06;20809223;28;20038;-68
2022/09/29 22:14:39;;;;;;;14.88;8.45;;;;;;;8.59;100.00;99469.81;20807608;28;20215;-69
2022/09/29 22:24:41;;;;;;;17.13;10.40;;;;;;;8.70;100.00;99470.41;20805553;28;20084;-68
2022/09/29 22:34:42;;;;;;;13.20;8.25;;;;;;;8.65;100.00;99467.91;20808455;28;20088;-68
2022/09/29 22:44:43;;;;;;;13.85;7.80;;;;;;;8.58;100.00;99465.50;20809681;28;20053;-71
2022/09/29 22:54:45;;;;;;;20.73;10.48;;;;;;;8.51;100.00;99479.56;20808536;28;20077;-68
2022/09/29 23:04:46;;;;;;;18.48;10.52;;;;;;;8.50;100.00;99489.13;20810312;28;20084;-69
2022/09/29 23:14:48;;;;;;;18.48;10.07;;;;;;;8.50;100.00;99485.66;20824060;28;20080;-69
2022/09/29 23:24:49;;;;;;;19.48;10.25;;;;;;;8.45;100.00;99502.28;20823792;28;20462;-68
2022/09/29 23:34:51;;;;;;;16.45;9.35;;;;;;;8.54;100.00;99495.16;20823680;28;20107;-68
2022/09/29 23:44:52;;;;;;;17.35;9.73;;;;;;;8.46;100.00;99501.38;20822107;28;20076;-69
2022/09/29 23:54:53;;;;;;;16.52;10.20;;;;;;;8.37;100.00;99511.16;20821288;28;20501;-69
